createdAt,value
2019-03-16T00:00:30.038Z,39.07
2019-03-16T00:02:58.991Z,38.80
2019-03-16T00:05:27.904Z,43.27
2019-03-16T00:07:56.750Z,46.97
2019-03-16T00:10:25.576Z,54.00
2019-03-16T00:12:54.500Z,51.73
2019-03-16T00:15:23.469Z,40.00
2019-03-16T00:17:52.329Z,54.33
2019-03-16T00:20:21.168Z,55.40
2019-03-16T00:22:50.021Z,52.57
2019-03-16T00:25:18.859Z,22.80
2019-03-16T00:27:47.715Z,30.30
2019-03-16T00:30:16.813Z,55.03
2019-03-16T00:32:45.731Z,48.17
2019-03-16T00:35:14.675Z,61.87
2019-03-16T00:37:43.732Z,53.50
2019-03-16T00:40:12.826Z,54.90
2019-03-16T00:42:41.817Z,49.03
2019-03-16T00:45:10.827Z,53.07
2019-03-16T00:47:39.768Z,50.67
2019-03-16T00:50:09.392Z,46.83
2019-03-16T00:52:38.244Z,43.00
2019-03-16T00:55:07.368Z,44.47
2019-03-16T00:57:36.373Z,45.50
2019-03-16T01:00:06.208Z,34.93
2019-03-16T01:02:35.225Z,32.37
2019-03-16T01:05:04.566Z,38.00
2019-03-16T01:07:33.422Z,40.73
2019-03-16T01:10:02.338Z,30.30
2019-03-16T01:12:31.280Z,27.80
2019-03-16T01:15:00.214Z,38.43
2019-03-16T01:17:29.350Z,53.20
2019-03-16T01:19:58.308Z,53.00
2019-03-16T01:22:27.168Z,46.30
2019-03-16T01:24:56.078Z,51.07
2019-03-16T01:27:24.913Z,46.37
2019-03-16T01:29:53.758Z,48.53
2019-03-16T01:32:22.665Z,47.10
2019-03-16T01:34:51.598Z,52.27
2019-03-16T01:37:20.440Z,55.13
2019-03-16T01:39:49.317Z,54.00
2019-03-16T01:42:18.213Z,51.90
2019-03-16T01:44:47.148Z,54.13
2019-03-16T01:47:16.142Z,58.53
2019-03-16T01:49:45.113Z,58.57
2019-03-16T01:52:14.066Z,49.27
2019-03-16T01:54:43.005Z,51.67
2019-03-16T01:57:11.838Z,49.70
2019-03-16T01:59:40.803Z,54.37
2019-03-16T02:02:09.632Z,51.33
2019-03-16T02:04:38.569Z,57.47
2019-03-16T02:07:08.054Z,57.87
2019-03-16T02:09:36.904Z,53.93
2019-03-16T02:12:05.828Z,61.90
2019-03-16T02:14:34.865Z,73.57
2019-03-16T02:17:03.784Z,72.93
2019-03-16T02:19:35.730Z,63.13
2019-03-16T02:22:03.263Z,67.63
2019-03-16T02:24:32.212Z,74.90
2019-03-16T02:27:01.039Z,66.67
2019-03-16T02:29:30.066Z,70.97
2019-03-16T02:31:59.448Z,77.10
2019-03-16T02:34:28.299Z,76.87
2019-03-16T02:36:57.139Z,71.93
2019-03-16T02:39:26.068Z,67.83
2019-03-16T02:41:54.892Z,60.97
2019-03-16T02:44:23.742Z,70.87
2019-03-16T02:46:54.385Z,68.57
2019-03-16T02:49:24.124Z,77.97
2019-03-16T02:51:53.172Z,72.50
2019-03-16T02:54:22.244Z,73.00
2019-03-16T02:57:10.272Z,79.60
2019-03-16T02:59:39.309Z,78.93
2019-03-16T03:02:08.145Z,85.70
2019-03-16T03:04:37.010Z,78.20
2019-03-16T03:07:06.009Z,91.43
2019-03-16T03:09:34.842Z,96.13
2019-03-16T03:12:03.835Z,92.97
2019-03-16T03:14:32.715Z,92.47
2019-03-16T03:17:01.544Z,90.33
2019-03-16T03:19:30.413Z,96.40
2019-03-16T03:21:59.312Z,98.77
2019-03-16T03:24:28.261Z,89.17
2019-03-16T03:26:57.101Z,82.30
2019-03-16T03:29:25.980Z,97.47
2019-03-16T03:31:54.920Z,86.67
2019-03-16T03:34:23.759Z,83.83
2019-03-16T03:36:52.685Z,93.57
2019-03-16T03:39:21.600Z,93.80
2019-03-16T03:41:50.437Z,88.57
2019-03-16T03:44:19.298Z,90.13
2019-03-16T03:46:48.165Z,99.40
2019-03-16T03:49:17.008Z,100.47
2019-03-16T03:51:45.849Z,106.90
2019-03-16T03:54:14.852Z,111.07
2019-03-16T03:56:43.787Z,115.23
2019-03-16T03:59:12.618Z,113.27
2019-03-16T04:01:41.562Z,111.60
2019-03-16T04:04:15.534Z,124.73
2019-03-16T04:06:41.113Z,117.13
2019-03-16T04:09:09.962Z,130.30
2019-03-16T04:11:38.937Z,110.43
2019-03-16T04:14:07.929Z,99.37
2019-03-16T04:16:36.796Z,100.90
2019-03-16T04:19:05.707Z,109.20
2019-03-16T04:21:34.709Z,97.90
2019-03-16T04:24:03.637Z,103.87
2019-03-16T04:26:32.476Z,102.57
2019-03-16T04:29:01.336Z,122.20
2019-03-16T04:31:30.381Z,103.40
2019-03-16T04:33:59.258Z,98.70
2019-03-16T04:36:28.122Z,111.77
2019-03-16T04:38:57.008Z,112.03
2019-03-16T04:41:25.873Z,110.90
2019-03-16T04:43:54.876Z,116.80
2019-03-16T04:46:23.735Z,115.73
2019-03-16T04:48:52.678Z,119.47
2019-03-16T04:51:21.604Z,128.23
2019-03-16T04:53:50.457Z,118.50
2019-03-16T04:56:19.330Z,123.77
2019-03-16T04:58:48.182Z,121.27
2019-03-16T05:01:17.151Z,121.33
2019-03-16T05:03:45.992Z,121.23
2019-03-16T05:06:14.831Z,129.27
2019-03-16T05:08:43.673Z,123.63
2019-03-16T05:11:12.566Z,126.20
2019-03-16T05:13:41.521Z,131.47
2019-03-16T05:16:10.492Z,130.97
2019-03-16T05:18:39.413Z,127.93
2019-03-16T05:21:08.338Z,141.40
2019-03-16T05:23:37.188Z,141.47
2019-03-16T05:26:06.105Z,139.67
2019-03-16T05:28:35.016Z,145.53
2019-03-16T05:31:03.963Z,153.67
2019-03-16T05:33:33.229Z,147.30
2019-03-16T05:36:02.180Z,169.13
2019-03-16T05:38:31.064Z,163.10
2019-03-16T05:41:00.010Z,173.00
2019-03-16T05:43:28.948Z,166.67
2019-03-16T05:45:57.800Z,160.00
2019-03-16T05:48:26.715Z,173.10
2019-03-16T05:50:57.525Z,173.50
2019-03-16T05:53:26.145Z,173.23
2019-03-16T05:55:54.990Z,179.33
2019-03-16T05:58:23.828Z,175.33
2019-03-16T06:00:52.663Z,180.50
2019-03-16T06:03:21.505Z,185.03
2019-03-16T06:05:50.341Z,187.03
2019-03-16T06:08:19.215Z,190.47
2019-03-16T06:10:48.044Z,188.80
2019-03-16T06:13:16.957Z,185.70
2019-03-16T06:15:45.949Z,184.17
2019-03-16T06:18:14.843Z,190.63
2019-03-16T06:20:43.775Z,190.17
2019-03-16T06:23:12.643Z,192.83
2019-03-16T06:25:41.596Z,192.27
2019-03-16T06:28:10.529Z,205.97
2019-03-16T06:30:39.372Z,196.03
2019-03-16T06:33:08.310Z,196.50
2019-03-16T06:35:37.233Z,192.37
2019-03-16T06:38:06.094Z,198.23
2019-03-16T06:40:35.025Z,198.37
2019-03-16T06:43:03.955Z,196.43
2019-03-16T06:45:32.877Z,198.03
2019-03-16T06:48:01.827Z,211.37
2019-03-16T06:50:30.660Z,207.23
2019-03-16T06:52:59.520Z,200.20
2019-03-16T06:55:28.424Z,203.27
2019-03-16T06:58:00.409Z,198.97
2019-03-16T07:00:29.251Z,190.70
2019-03-16T07:02:58.283Z,207.80
2019-03-16T07:05:37.614Z,201.07
2019-03-16T07:07:57.773Z,203.60
2019-03-16T07:10:27.725Z,204.57
2019-03-16T07:12:56.664Z,204.87
2019-03-16T07:15:25.612Z,214.27
2019-03-16T07:17:54.528Z,217.23
2019-03-16T07:20:23.395Z,217.20
2019-03-16T07:22:52.253Z,214.83
2019-03-16T07:25:21.128Z,227.53
2019-03-16T07:27:50.101Z,225.03
2019-03-16T07:30:18.992Z,220.23
2019-03-16T07:32:47.843Z,223.30
2019-03-16T07:35:16.785Z,223.13
2019-03-16T07:37:45.658Z,227.13
2019-03-16T07:40:14.759Z,239.87
2019-03-16T07:42:43.688Z,227.03
2019-03-16T07:45:12.926Z,228.37
2019-03-16T07:47:41.856Z,237.83
2019-03-16T07:50:11.001Z,239.27
2019-03-16T07:52:40.021Z,241.67
2019-03-16T07:55:09.217Z,240.70
2019-03-16T07:57:40.529Z,242.93
2019-03-16T08:00:08.848Z,250.00
2019-03-16T08:02:37.840Z,245.50
2019-03-16T08:05:17.392Z,242.87
2019-03-16T08:07:37.417Z,249.57
2019-03-16T08:10:06.887Z,242.57
2019-03-16T08:12:35.781Z,251.47
2019-03-16T08:15:05.187Z,267.17
2019-03-16T08:17:34.035Z,254.10
2019-03-16T08:20:02.996Z,261.57
2019-03-16T08:22:31.944Z,273.93
2019-03-16T08:25:00.820Z,262.70
2019-03-16T08:27:29.716Z,269.70
2019-03-16T08:29:58.576Z,271.43
2019-03-16T08:32:27.436Z,271.83
2019-03-16T08:34:56.310Z,273.77
2019-03-16T08:37:25.171Z,277.57
2019-03-16T08:39:54.120Z,276.70
2019-03-16T08:42:22.996Z,293.53
2019-03-16T08:44:51.860Z,291.93
2019-03-16T08:47:20.780Z,290.87
2019-03-16T08:49:49.779Z,287.67
2019-03-16T08:52:18.616Z,280.93
2019-03-16T08:54:47.477Z,282.60
2019-03-16T08:57:16.323Z,281.87
2019-03-16T08:59:45.232Z,289.70
2019-03-16T09:02:14.244Z,289.10
2019-03-16T09:04:43.180Z,301.87
2019-03-16T09:07:12.140Z,307.40
2019-03-16T09:09:40.973Z,311.57
2019-03-16T09:12:09.892Z,310.00
2019-03-16T09:14:38.846Z,308.27
2019-03-16T09:17:09.107Z,328.00
2019-03-16T09:19:38.071Z,335.67
2019-03-16T09:22:08.580Z,323.97
2019-03-16T09:24:37.459Z,356.77
2019-03-16T09:27:06.352Z,352.40
2019-03-16T09:29:35.308Z,350.03
2019-03-16T09:32:04.264Z,342.33
2019-03-16T09:34:33.116Z,339.63
2019-03-16T09:37:01.973Z,340.27
2019-03-16T09:39:30.804Z,339.13
2019-03-16T09:41:59.801Z,333.37
2019-03-16T09:44:28.668Z,333.13
2019-03-16T09:46:57.549Z,336.10
2019-03-16T09:49:26.394Z,334.57
2019-03-16T09:51:55.265Z,350.23
2019-03-16T09:54:24.932Z,348.23
2019-03-16T09:57:01.196Z,351.57
2019-03-16T09:59:24.368Z,363.43
2019-03-16T10:01:53.247Z,373.37
2019-03-16T10:04:22.192Z,375.63
2019-03-16T10:06:51.087Z,383.60
2019-03-16T10:09:20.133Z,379.30
2019-03-16T10:11:49.098Z,380.27
2019-03-16T10:14:18.045Z,380.97
2019-03-16T10:16:46.969Z,372.60
2019-03-16T10:19:15.902Z,375.70
2019-03-16T10:21:44.764Z,373.03
2019-03-16T10:24:13.628Z,380.57
2019-03-16T10:26:42.548Z,371.53
2019-03-16T10:29:11.404Z,375.43
2019-03-16T10:31:40.265Z,381.17
2019-03-16T10:34:09.123Z,397.50
2019-03-16T10:36:38.256Z,365.23
2019-03-16T10:39:07.748Z,367.63
2019-03-16T10:41:36.623Z,352.00
2019-03-16T10:44:05.618Z,350.07
2019-03-16T10:46:34.518Z,360.17
2019-03-16T10:49:03.373Z,357.90
2019-03-16T10:51:32.221Z,353.87
2019-03-16T10:54:01.089Z,368.63
2019-03-16T10:56:29.991Z,374.87
2019-03-16T10:58:58.875Z,366.33
2019-03-16T11:01:27.717Z,369.37
2019-03-16T11:03:56.598Z,365.10
2019-03-16T11:06:25.433Z,369.93
2019-03-16T11:08:54.272Z,369.63
2019-03-16T11:11:23.128Z,375.33
2019-03-16T11:13:52.032Z,378.13
2019-03-16T11:16:23.904Z,382.47
2019-03-16T11:18:52.752Z,372.60
2019-03-16T11:21:21.720Z,370.90
2019-03-16T11:23:50.600Z,363.80
2019-03-16T11:26:19.715Z,359.13
2019-03-16T11:28:48.624Z,361.60
2019-03-16T11:31:17.637Z,362.57
2019-03-16T11:33:48.423Z,369.27
2019-03-16T11:36:17.205Z,372.23
2019-03-16T11:38:46.156Z,363.60
2019-03-16T11:41:15.156Z,357.53
2019-03-16T11:43:44.036Z,369.27
2019-03-16T11:46:12.896Z,374.47
2019-03-16T11:48:41.784Z,373.63
2019-03-16T11:51:10.805Z,376.27
2019-03-16T11:53:39.815Z,385.37
2019-03-16T11:56:18.086Z,397.20
2019-03-16T11:58:39.425Z,405.60
2019-03-16T12:01:08.259Z,414.90
2019-03-16T12:03:37.349Z,427.83
2019-03-16T12:06:06.266Z,448.57
2019-03-16T12:08:35.128Z,448.43
2019-03-16T12:11:03.980Z,448.43
2019-03-16T12:13:32.850Z,459.90
2019-03-16T12:16:01.754Z,447.30
2019-03-16T12:18:30.719Z,455.10
2019-03-16T12:20:59.576Z,463.03
2019-03-16T12:23:33.760Z,457.70
2019-03-16T12:26:02.750Z,441.27
2019-03-16T12:28:31.581Z,458.93
2019-03-16T12:31:00.588Z,439.10
2019-03-16T12:33:29.425Z,442.00
2019-03-16T12:35:58.292Z,440.80
2019-03-16T12:38:27.153Z,441.07
2019-03-16T12:40:56.031Z,449.10
2019-03-16T12:43:24.935Z,449.17
2019-03-16T12:45:53.828Z,441.40
2019-03-16T12:48:22.751Z,446.07
2019-03-16T12:50:54.293Z,450.70
2019-03-16T12:53:22.197Z,448.57
2019-03-16T12:55:51.119Z,465.57
2019-03-16T12:58:20.008Z,460.83
2019-03-16T13:00:48.884Z,463.90
2019-03-16T13:03:17.727Z,463.83
2019-03-16T13:05:46.925Z,455.40
2019-03-16T13:08:15.886Z,450.67
2019-03-16T13:10:44.840Z,451.77
2019-03-16T13:13:13.856Z,457.13
2019-03-16T13:15:42.968Z,482.47
2019-03-16T13:18:11.911Z,478.53
2019-03-16T13:20:40.775Z,487.70
2019-03-16T13:23:09.657Z,492.80
2019-03-16T13:25:38.593Z,491.93
2019-03-16T13:28:07.516Z,496.43
2019-03-16T13:30:36.374Z,499.40
2019-03-16T13:33:05.285Z,508.63
2019-03-16T13:35:34.154Z,509.40
2019-03-16T13:38:03.006Z,510.47
2019-03-16T13:40:31.927Z,509.53
2019-03-16T13:43:00.863Z,517.80
2019-03-16T13:45:29.729Z,516.40
2019-03-16T13:47:59.070Z,504.93
2019-03-16T13:50:27.999Z,504.13
2019-03-16T13:52:57.241Z,498.27
2019-03-16T13:55:26.108Z,502.53
2019-03-16T13:57:55.042Z,524.97
2019-03-16T14:00:24.264Z,514.53
2019-03-16T14:02:54.572Z,523.80
2019-03-16T14:05:23.411Z,524.80
2019-03-16T14:07:52.355Z,532.73
2019-03-16T14:10:21.591Z,523.17
2019-03-16T14:12:50.458Z,526.57
2019-03-16T14:15:19.439Z,524.00
2019-03-16T14:17:48.288Z,537.33
2019-03-16T14:20:17.571Z,538.10
2019-03-16T14:22:46.434Z,537.87
2019-03-16T14:25:15.395Z,544.03
2019-03-16T14:27:44.338Z,539.37
2019-03-16T14:30:29.053Z,540.40
2019-03-16T14:32:44.505Z,523.90
2019-03-16T14:35:13.424Z,525.00
2019-03-16T14:37:42.457Z,520.47
2019-03-16T14:40:13.965Z,518.17
2019-03-16T14:42:42.903Z,518.70
2019-03-16T14:45:12.066Z,512.07
2019-03-16T14:47:40.996Z,512.73
2019-03-16T14:50:15.990Z,506.53
2019-03-16T14:52:43.718Z,506.83
2019-03-16T14:55:12.705Z,493.87
2019-03-16T14:57:42.185Z,492.77
2019-03-16T15:00:12.636Z,503.50
2019-03-16T15:02:42.322Z,497.93
2019-03-16T15:05:11.421Z,492.10
2019-03-16T15:07:40.454Z,486.17
2019-03-16T15:10:09.490Z,495.63
2019-03-16T15:12:38.421Z,455.93
2019-03-16T15:15:08.841Z,484.97
2019-03-16T15:17:37.698Z,437.03
2019-03-16T15:20:06.925Z,455.07
2019-03-16T15:22:35.895Z,418.97
2019-03-16T15:25:05.515Z,396.70
2019-03-16T15:27:34.505Z,380.07
2019-03-16T15:30:03.530Z,432.27
2019-03-16T15:32:32.397Z,376.93
2019-03-16T15:35:01.284Z,379.20
2019-03-16T15:37:30.215Z,381.47
2019-03-16T15:39:59.046Z,322.93
2019-03-16T15:42:27.960Z,359.83
2019-03-16T15:44:56.892Z,346.33
2019-03-16T15:47:25.751Z,397.90
2019-03-16T15:49:54.601Z,417.87
2019-03-16T15:52:23.463Z,306.23
2019-03-16T15:54:52.395Z,328.70
2019-03-16T15:57:21.316Z,388.53
2019-03-16T15:59:50.233Z,319.30
2019-03-16T16:02:19.246Z,334.40
2019-03-16T16:04:48.157Z,330.83
2019-03-16T16:07:17.023Z,414.60
2019-03-16T16:09:45.894Z,421.93
2019-03-16T16:12:14.727Z,415.27
2019-03-16T16:14:43.598Z,429.57
2019-03-16T16:17:12.604Z,427.27
2019-03-16T16:19:41.468Z,439.13
2019-03-16T16:22:10.312Z,438.27
2019-03-16T16:24:39.247Z,401.23
2019-03-16T16:27:08.146Z,414.23
2019-03-16T16:29:36.998Z,378.77
2019-03-16T16:32:06.444Z,388.50
2019-03-16T16:34:35.500Z,305.87
2019-03-16T16:37:04.517Z,334.43
2019-03-16T16:39:33.403Z,311.60
2019-03-16T16:42:02.326Z,338.10
2019-03-16T16:44:31.180Z,397.50
2019-03-16T16:47:00.104Z,380.27
2019-03-16T16:49:28.953Z,417.57
2019-03-16T16:51:57.896Z,371.80
2019-03-16T16:54:26.782Z,303.00
2019-03-16T16:56:55.653Z,361.53
2019-03-16T16:59:24.583Z,354.77
2019-03-16T17:01:53.512Z,330.53
2019-03-16T17:04:23.010Z,289.13
2019-03-16T17:06:51.952Z,317.70
2019-03-16T17:09:20.884Z,163.60
2019-03-16T17:11:49.735Z,395.70
2019-03-16T17:14:18.659Z,366.00
2019-03-16T17:16:47.516Z,371.67
2019-03-16T17:19:16.404Z,371.43
2019-03-16T17:21:45.307Z,343.50
2019-03-16T17:24:14.127Z,106.60
2019-03-16T17:26:42.980Z,28.83
2019-03-16T17:29:11.833Z,234.80
2019-03-16T17:31:42.508Z,185.57
2019-03-16T17:34:11.361Z,195.37
2019-03-16T17:36:40.334Z,180.37
2019-03-16T17:39:09.388Z,178.63
2019-03-16T17:41:38.236Z,133.50
2019-03-16T17:44:07.097Z,97.60
2019-03-16T17:46:35.987Z,166.03
2019-03-16T17:49:04.905Z,187.80
2019-03-16T17:51:33.796Z,226.80
2019-03-16T17:54:02.651Z,229.07
2019-03-16T17:56:31.513Z,232.53
2019-03-16T17:59:00.367Z,187.87
2019-03-16T18:01:29.262Z,159.53
2019-03-16T18:03:58.132Z,155.53
2019-03-16T18:06:27.106Z,142.47
2019-03-16T18:08:55.963Z,124.17
2019-03-16T18:11:24.887Z,192.93
2019-03-16T18:13:53.770Z,184.10
2019-03-16T18:16:22.616Z,151.93
2019-03-16T18:18:51.469Z,169.23
2019-03-16T18:21:20.341Z,9.73
2019-03-16T18:23:49.224Z,143.33
2019-03-16T18:26:18.109Z,100.50
2019-03-16T18:28:46.958Z,109.87
2019-03-16T18:31:15.812Z,123.00
2019-03-16T18:33:44.688Z,225.40
2019-03-16T18:36:13.554Z,212.40
2019-03-16T18:38:42.447Z,203.43
2019-03-16T18:41:11.311Z,221.60
2019-03-16T18:43:40.172Z,213.07
2019-03-16T18:46:09.017Z,208.20
2019-03-16T18:48:37.880Z,205.03
2019-03-16T18:51:06.853Z,200.73
2019-03-16T18:53:35.708Z,204.03
2019-03-16T18:56:04.567Z,215.10
2019-03-16T18:58:37.631Z,213.53
2019-03-16T19:01:04.082Z,192.03
2019-03-16T19:03:32.946Z,199.47
2019-03-16T19:06:01.866Z,199.20
2019-03-16T19:08:34.285Z,190.17
2019-03-16T19:11:02.905Z,176.03
2019-03-16T19:13:31.819Z,172.23
2019-03-16T19:16:00.740Z,169.93
2019-03-16T19:18:29.600Z,174.23
2019-03-16T19:20:58.463Z,172.10
2019-03-16T19:23:27.378Z,192.53
2019-03-16T19:25:57.431Z,180.60
2019-03-16T19:28:26.396Z,169.70
2019-03-16T19:30:55.268Z,175.27
2019-03-16T19:33:24.129Z,179.20
2019-03-16T19:35:52.980Z,185.57
2019-03-16T19:38:21.908Z,171.40
2019-03-16T19:40:50.836Z,168.63
2019-03-16T19:43:19.703Z,174.47
2019-03-16T19:45:48.557Z,180.80
2019-03-16T19:48:17.497Z,172.83
2019-03-16T19:50:46.419Z,173.57
2019-03-16T19:53:15.280Z,166.33
2019-03-16T19:55:44.120Z,159.30
2019-03-16T19:58:13.160Z,169.83
2019-03-16T20:00:42.000Z,164.43
2019-03-16T20:03:10.963Z,169.00
2019-03-16T20:05:39.796Z,170.17
2019-03-16T20:08:08.727Z,166.83
2019-03-16T20:10:37.730Z,166.23
2019-03-16T20:13:06.734Z,167.03
2019-03-16T20:15:35.671Z,168.57
2019-03-16T20:18:04.664Z,174.13
2019-03-16T20:20:33.573Z,169.77
2019-03-16T20:23:02.511Z,170.03
2019-03-16T20:25:31.417Z,168.60
2019-03-16T20:28:00.352Z,168.40
2019-03-16T20:30:29.273Z,170.93
2019-03-16T20:33:03.824Z,167.67
2019-03-16T20:35:28.730Z,165.27
2019-03-16T20:37:57.576Z,166.90
2019-03-16T20:40:26.422Z,163.73
2019-03-16T20:42:55.362Z,165.50
2019-03-16T20:45:24.278Z,177.43
2019-03-16T20:47:53.279Z,168.73
2019-03-16T20:50:22.146Z,174.10
2019-03-16T20:52:51.029Z,174.17
2019-03-16T20:55:19.887Z,168.60
2019-03-16T20:57:48.820Z,177.57
2019-03-16T21:00:17.907Z,173.17
2019-03-16T21:02:47.180Z,182.60
2019-03-16T21:05:16.348Z,176.03
2019-03-16T21:07:45.278Z,173.47
2019-03-16T21:10:14.407Z,171.70
2019-03-16T21:12:43.432Z,175.30
2019-03-16T21:15:12.548Z,174.60
2019-03-16T21:17:47.065Z,178.30
2019-03-16T21:20:16.242Z,185.40
2019-03-16T21:22:49.420Z,179.77
2019-03-16T21:25:18.753Z,186.80
2019-03-16T21:27:47.679Z,181.57
2019-03-16T21:30:16.789Z,185.53
2019-03-16T21:32:45.704Z,185.20
2019-03-16T21:35:14.645Z,181.50
2019-03-16T21:37:43.648Z,190.03
2019-03-16T21:40:12.685Z,191.47
2019-03-16T21:42:41.616Z,192.23
2019-03-16T21:45:10.887Z,206.50
2019-03-16T21:47:39.860Z,199.77
2019-03-16T21:50:09.524Z,213.67
2019-03-16T21:52:38.464Z,211.37
2019-03-16T21:55:07.834Z,206.90
2019-03-16T21:57:36.693Z,223.77
2019-03-16T22:00:07.553Z,219.37
2019-03-16T22:02:36.406Z,217.43
2019-03-16T22:05:05.575Z,213.80
2019-03-16T22:07:34.418Z,217.77
2019-03-16T22:10:03.377Z,215.27
2019-03-16T22:12:32.219Z,217.63
2019-03-16T22:15:01.100Z,217.20
2019-03-16T22:17:30.000Z,210.03
2019-03-16T22:19:58.857Z,205.87
2019-03-16T22:22:27.783Z,211.37
2019-03-16T22:24:56.649Z,204.70
2019-03-16T22:27:25.521Z,205.93
2019-03-16T22:29:54.387Z,205.43
2019-03-16T22:32:23.233Z,203.50
2019-03-16T22:34:52.248Z,198.23
2019-03-16T22:37:21.075Z,202.60
2019-03-16T22:39:49.927Z,198.77
2019-03-16T22:42:18.848Z,192.73
2019-03-16T22:44:47.693Z,197.30
2019-03-16T22:47:16.613Z,189.40
2019-03-16T22:49:45.464Z,191.17
2019-03-16T22:52:14.411Z,193.43
2019-03-16T22:54:43.260Z,184.83
2019-03-16T22:57:12.249Z,186.93
2019-03-16T22:59:41.283Z,173.97
2019-03-16T23:02:10.224Z,184.27
2019-03-16T23:04:39.170Z,184.73
2019-03-16T23:07:08.037Z,186.33
2019-03-16T23:09:37.033Z,178.17
2019-03-16T23:12:06.800Z,187.97
2019-03-16T23:14:35.724Z,180.30
2019-03-16T23:17:04.673Z,185.03
2019-03-16T23:19:33.531Z,183.30
2019-03-16T23:22:02.381Z,179.80
2019-03-16T23:24:31.321Z,177.73
2019-03-16T23:27:00.195Z,195.20
2019-03-16T23:29:29.105Z,192.33
2019-03-16T23:31:57.956Z,180.10
2019-03-16T23:34:26.801Z,179.17
2019-03-16T23:36:55.764Z,182.03
2019-03-16T23:39:24.611Z,180.87
2019-03-16T23:41:53.532Z,177.17
2019-03-16T23:44:22.372Z,190.37
2019-03-16T23:46:51.237Z,179.97
2019-03-16T23:49:20.156Z,179.40
2019-03-16T23:51:49.012Z,179.03
2019-03-16T23:54:17.871Z,181.50
2019-03-16T23:56:46.797Z,179.30
2019-03-16T23:59:15.628Z,183.13
